Time;durP1;ratioP1;P1;durP2;ratioP2;P2;SDS_P1;SDS_P2;PMS_P1;PMS_P2;Temp;Humidity;BMP_temperature;BMP_pressure;BME280_temperature;BME280_humidity;BME280_pressure;Samples;Min_cycle;Max_cycle;Signal;HPM_P1;HPM_P2
2023/07/07 00:01:33;;;;;;;12.98;6.75;;;13.30;99.90;;;;;;4790096;29;20045;-92
2023/07/07 00:03:59;;;;;;;16.15;7.05;;;12.70;99.90;;;;;;4788716;29;20096;-92
2023/07/07 00:06:25;;;;;;;11.90;7.18;;;12.70;99.90;;;;;;4789792;29;20039;-92
2023/07/07 00:09:06;;;;;;;13.05;6.50;;;12.70;99.90;;;;;;4790785;29;20081;-92
2023/07/07 00:11:31;;;;;;;13.45;7.43;;;12.60;99.90;;;;;;4796292;29;20055;-92
2023/07/07 00:13:57;;;;;;;12.75;7.18;;;13.50;99.90;;;;;;4794288;29;20134;-93
2023/07/07 00:17:09;;;;;;;12.93;6.80;;;12.60;99.90;;;;;;4798681;29;20533;-93
2023/07/07 00:19:36;;;;;;;13.45;7.38;;;12.60;99.90;;;;;;4805792;29;20507;-92
2023/07/07 00:22:05;;;;;;;13.45;6.63;;;12.50;99.90;;;;;;4806126;29;20491;-93
2023/07/07 00:24:44;;;;;;;14.10;6.57;;;12.50;99.90;;;;;;4808040;29;20050;-93
2023/07/07 00:27:09;;;;;;;12.35;7.15;;;12.50;99.90;;;;;;4806439;29;20258;-93
2023/07/07 00:29:46;;;;;;;14.27;7.38;;;12.40;99.90;;;;;;4807850;29;20523;-92
2023/07/07 00:32:12;;;;;;;13.75;7.55;;;12.40;99.90;;;;;;4821406;29;20051;-92
2023/07/07 00:34:37;;;;;;;15.90;8.18;;;12.40;99.90;;;;;;4806512;29;20054;-93
2023/07/07 00:37:03;;;;;;;13.82;7.88;;;12.40;99.90;;;;;;4807242;29;20051;-92
2023/07/07 00:39:44;;;;;;;13.85;8.05;;;12.40;99.90;;;;;;4808302;29;20053;-92
2023/07/07 00:42:10;;;;;;;13.00;7.43;;;12.30;99.90;;;;;;4864772;24;20035;-93
2023/07/07 00:45:05;;;;;;;14.35;8.48;;;12.40;99.90;;;;;;4806993;29;20052;-93
2023/07/07 00:48:05;;;;;;;13.13;7.72;;;12.30;99.90;;;;;;4797595;29;20087;-93
2023/07/07 00:50:51;;;;;;;13.80;7.90;;;12.30;99.90;;;;;;4789348;30;20421;-92
2023/07/07 00:53:18;;;;;;;14.43;7.95;;;12.30;99.90;;;;;;4789308;29;20408;-92
2023/07/07 00:56:00;;;;;;;14.15;8.18;;;13.40;99.90;;;;;;4787785;29;20051;-93
2023/07/07 00:58:26;;;;;;;13.45;7.93;;;12.20;99.90;;;;;;4788517;29;20062;-93
2023/07/07 01:01:17;;;;;;;16.90;9.00;;;12.20;99.90;;;;;;4787382;29;20043;-93
2023/07/07 01:03:50;;;;;;;16.88;8.82;;;12.20;99.90;;;;;;4788364;29;20411;-92
2023/07/07 01:07:04;;;;;;;17.52;9.50;;;12.20;99.90;;;;;;4788083;29;20485;-93
2023/07/07 01:09:33;;;;;;;15.43;8.90;;;12.10;99.90;;;;;;4752944;30;20125;-93
2023/07/07 01:11:59;;;;;;;19.08;10.00;;;12.10;99.90;;;;;;4753099;30;20047;-93
2023/07/07 01:14:29;;;;;;;18.77;10.50;;;12.10;99.90;;;;;;4785914;30;20128;-93
2023/07/07 01:17:44;;;;;;;17.33;10.68;;;13.20;99.90;;;;;;4787434;29;20043;-93
2023/07/07 01:20:21;;;;;;;18.25;10.90;;;12.10;99.90;;;;;;4789656;29;20051;-93
2023/07/07 01:23:11;;;;;;;17.23;11.20;;;12.10;99.90;;;;;;4799603;29;20053;-93
2023/07/07 01:25:49;;;;;;;18.90;10.68;;;12.20;99.90;;;;;;4781796;29;20632;-93
2023/07/07 01:28:42;;;;;;;17.17;10.35;;;12.10;99.90;;;;;;4774799;29;20058;-93
2023/07/07 01:31:32;;;;;;;22.50;11.57;;;11.60;99.90;;;;;;4775206;29;20085;-92
2023/07/07 01:33:59;;;;;;;18.60;11.98;;;12.10;99.90;;;;;;4805696;29;20098;-93
2023/07/07 01:36:25;;;;;;;20.92;12.02;;;12.90;99.90;;;;;;4804829;29;20054;-93
2023/07/07 01:39:03;;;;;;;22.40;12.75;;;13.10;99.90;;;;;;4805946;29;20051;-92
2023/07/07 01:41:55;;;;;;;20.58;12.63;;;12.10;99.90;;;;;;4805595;29;20499;-92
2023/07/07 01:44:58;;;;;;;20.42;13.02;;;12.10;99.90;;;;;;4804609;29;20142;-92
2023/07/07 01:47:35;;;;;;;22.33;13.90;;;12.00;99.90;;;;;;4780579;29;20051;-92
2023/07/07 01:50:11;;;;;;;24.50;13.18;;;12.10;99.90;;;;;;4798427;24;20033;-92
2023/07/07 01:52:46;;;;;;;21.45;13.63;;;12.10;99.90;;;;;;4823925;29;20054;-92
2023/07/07 01:55:39;;;;;;;21.63;14.45;;;12.10;99.90;;;;;;4825785;29;20057;-93
2023/07/07 01:58:08;;;;;;;25.48;14.82;;;12.10;99.90;;;;;;4833620;29;20042;-92
2023/07/07 02:00:43;;;;;;;22.15;14.80;;;12.10;99.90;;;;;;4823503;29;20050;-93
2023/07/07 02:03:16;;;;;;;23.27;14.30;;;12.30;99.90;;;;;;4822716;29;20050;-92
2023/07/07 02:05:41;;;;;;;26.33;15.27;;;13.00;99.90;;;;;;4822176;29;20135;-92
2023/07/07 02:08:07;;;;;;;25.42;15.43;;;12.60;99.90;;;;;;4838192;29;20075;-92
2023/07/07 02:10:33;;;;;;;28.23;15.10;;;12.10;99.90;;;;;;4841266;29;20090;-93
2023/07/07 02:13:11;;;;;;;24.45;14.52;;;12.10;99.90;;;;;;4840855;29;20455;-93
2023/07/07 02:15:37;;;;;;;24.95;14.68;;;12.10;99.90;;;;;;4845334;29;20459;-92
2023/07/07 02:18:04;;;;;;;23.25;14.52;;;12.90;99.90;;;;;;4831266;29;20042;-92
2023/07/07 02:20:30;;;;;;;23.90;15.18;;;12.20;99.90;;;;;;4826188;29;20112;-92
2023/07/07 02:23:09;;;;;;;26.88;15.30;;;12.10;99.90;;;;;;4826511;29;20046;-92
2023/07/07 02:25:35;;;;;;;29.25;15.80;;;12.00;99.90;;;;;;4827062;29;20050;-92
2023/07/07 02:28:00;;;;;;;24.58;15.00;;;12.10;99.90;;;;;;4826182;29;20491;-93
2023/07/07 02:30:38;;;;;;;24.38;15.32;;;12.10;99.90;;;;;;4828320;29;20043;-92
2023/07/07 02:33:08;;;;;;;24.38;15.90;;;12.00;99.90;;;;;;4835093;29;20085;-91
2023/07/07 02:35:34;;;;;;;24.80;15.18;;;12.10;99.90;;;;;;4828735;29;20046;-93
2023/07/07 02:38:12;;;;;;;26.30;15.40;;;12.00;99.90;;;;;;4825887;29;20103;-92
2023/07/07 02:40:38;;;;;;;25.80;15.80;;;12.00;99.90;;;;;;4827490;29;20050;-92
2023/07/07 02:43:16;;;;;;;24.95;15.50;;;13.20;99.90;;;;;;4832081;29;20065;-92
2023/07/07 02:45:43;;;;;;;29.58;16.50;;;11.90;99.90;;;;;;4845526;29;20050;-91
2023/07/07 02:48:09;;;;;;;29.15;16.70;;;12.00;99.90;;;;;;4835215;29;20054;-93
2023/07/07 02:50:35;;;;;;;26.45;16.20;;;12.00;99.90;;;;;;4828574;29;20380;-93
2023/07/07 02:53:21;;;;;;;26.15;16.17;;;12.00;99.90;;;;;;4825650;29;20054;-92
2023/07/07 02:55:46;;;;;;;24.55;15.50;;;12.20;99.90;;;;;;4825369;29;20065;-91
2023/07/07 02:58:12;;;;;;;25.58;15.75;;;12.70;99.90;;;;;;4826176;29;20562;-92
2023/07/07 03:00:53;;;;;;;24.60;15.45;;;13.10;99.90;;;;;;4827700;29;20396;-92
2023/07/07 03:03:20;;;;;;;25.73;16.23;;;12.80;99.90;;;;;;4825479;29;20038;-91
2023/07/07 03:05:46;;;;;;;26.85;16.08;;;12.60;99.90;;;;;;4827241;29;20548;-93
2023/07/07 03:08:12;;;;;;;26.45;15.70;;;12.00;99.90;;;;;;4834815;29;20039;-93
2023/07/07 03:13:32;;;;;;;27.42;16.20;;;12.10;99.90;;;;;;4830612;24;20051;-92
2023/07/07 03:15:58;;;;;;;26.52;16.00;;;13.30;99.90;;;;;;4806922;29;20103;-92
2023/07/07 03:18:23;;;;;;;25.60;15.73;;;12.10;99.90;;;;;;4831767;24;20058;-92
2023/07/07 03:21:21;;;;;;;25.80;15.30;;;12.10;99.90;;;;;;4807903;29;20072;-93
2023/07/07 03:23:55;;;;;;;27.25;15.07;;;12.10;99.90;;;;;;4806678;29;20059;-93
2023/07/07 03:26:22;;;;;;;27.38;15.52;;;13.00;99.90;;;;;;4806738;29;20104;-92
2023/07/07 03:28:48;;;;;;;23.35;14.93;;;12.10;99.90;;;;;;4807666;29;20058;-92
2023/07/07 03:31:28;;;;;;;24.15;14.80;;;12.00;99.90;;;;;;4807030;29;20039;-92
2023/07/07 03:33:56;;;;;;;21.75;13.45;;;12.00;99.90;;;;;;4824584;29;20054;-92
2023/07/07 03:36:26;;;;;;;24.98;15.15;;;12.00;99.90;;;;;;4826524;29;20050;-92
2023/07/07 03:38:59;;;;;;;25.00;15.60;;;13.00;99.90;;;;;;4832030;29;20194;-94
2023/07/07 03:41:27;;;;;;;23.38;14.93;;;11.90;99.90;;;;;;4826267;29;20051;-93
2023/07/07 03:43:53;;;;;;;26.23;14.40;;;11.90;99.90;;;;;;4829918;29;20054;-92
2023/07/07 03:46:21;;;;;;;22.88;14.65;;;11.90;99.90;;;;;;4831686;29;20055;-92
2023/07/07 03:48:59;;;;;;;23.30;15.30;;;11.90;99.90;;;;;;4825040;29;20495;-93
2023/07/07 03:51:28;;;;;;;24.15;14.85;;;13.00;99.90;;;;;;4825004;29;20076;-92
2023/07/07 03:53:55;;;;;;;26.35;15.38;;;11.90;99.90;;;;;;4824708;29;20106;-92
2023/07/07 03:56:24;;;;;;;25.35;15.75;;;11.90;99.90;;;;;;4826259;29;20053;-92
2023/07/07 03:58:50;;;;;;;26.65;15.48;;;12.00;99.90;;;;;;4824218;29;20057;-92
2023/07/07 04:01:22;;;;;;;26.55;16.23;;;12.80;99.90;;;;;;4816368;29;20511;-93
2023/07/07 04:03:51;;;;;;;26.63;15.73;;;12.00;99.90;;;;;;4801683;29;20047;-93
2023/07/07 04:06:18;;;;;;;24.65;15.13;;;12.00;99.90;;;;;;4788859;29;20134;-93
2023/07/07 04:08:44;;;;;;;26.42;15.77;;;12.70;99.90;;;;;;4804165;29;20063;-93
2023/07/07 04:11:30;;;;;;;23.98;15.65;;;12.20;99.90;;;;;;4819855;24;20055;-93
2023/07/07 04:13:56;;;;;;;25.05;15.40;;;12.30;99.90;;;;;;4825246;29;20050;-93
2023/07/07 04:16:39;;;;;;;25.80;14.63;;;12.30;99.90;;;;;;4825105;29;20203;-91
2023/07/07 04:19:05;;;;;;;23.92;14.93;;;11.80;99.90;;;;;;4829250;29;20167;-92
2023/07/07 04:21:32;;;;;;;24.98;14.65;;;13.40;99.90;;;;;;4837000;29;20046;-94
2023/07/07 04:24:10;;;;;;;26.05;15.95;;;12.40;99.90;;;;;;4841168;29;20088;-94
2023/07/07 04:26:38;;;;;;;26.80;15.73;;;12.30;99.90;;;;;;4844001;29;20395;-94
2023/07/07 04:29:04;;;;;;;26.02;15.07;;;13.60;99.90;;;;;;4828435;29;20380;-94
2023/07/07 04:31:46;;;;;;;23.25;15.10;;;12.60;99.90;;;;;;4824594;29;20103;-93
2023/07/07 04:34:15;;;;;;;22.95;14.32;;;12.70;99.90;;;;;;4831482;24;20058;-93
2023/07/07 04:36:41;;;;;;;24.52;13.98;;;12.80;99.90;;;;;;4806960;29;20078;-94
2023/07/07 04:39:11;;;;;;;23.48;14.93;;;12.90;99.90;;;;;;4806552;29;20570;-94
2023/07/07 04:41:37;;;;;;;23.52;14.90;;;13.00;99.90;;;;;;4807255;29;20536;-94
2023/07/07 04:44:03;;;;;;;23.98;14.75;;;13.10;99.90;;;;;;4807120;29;20046;-92
2023/07/07 04:46:53;;;;;;;25.58;14.90;;;12.50;99.90;;;;;;4828853;24;20054;-94
2023/07/07 04:49:21;;;;;;;24.35;14.43;;;13.00;99.90;;;;;;4825538;29;20120;-93
2023/07/07 04:52:12;;;;;;;22.98;14.30;;;14.20;99.90;;;;;;4827063;29;20107;-93
2023/07/07 04:54:38;;;;;;;23.73;14.00;;;13.30;99.90;;;;;;4809407;29;20054;-94
2023/07/07 04:57:17;;;;;;;22.77;14.13;;;13.40;99.90;;;;;;4817893;29;20068;-93
2023/07/07 04:59:43;;;;;;;22.50;13.80;;;14.40;99.90;;;;;;4806515;29;20119;-94
2023/07/07 05:02:08;;;;;;;21.40;13.63;;;13.60;99.90;;;;;;4805710;29;20046;-94
2023/07/07 05:04:34;;;;;;;22.27;14.30;;;13.70;99.90;;;;;;4842608;29;20081;-94
2023/07/07 05:07:15;;;;;;;21.45;13.20;;;13.80;99.90;;;;;;4843918;29;20382;-94
2023/07/07 05:09:41;;;;;;;20.90;13.45;;;13.90;99.90;;;;;;4842298;29;20049;-94
2023/07/07 05:12:09;;;;;;;23.90;13.75;;;14.00;99.90;;;;;;4836528;29;20492;-94
2023/07/07 05:15:00;;;;;;;18.85;11.63;;;14.20;99.90;;;;;;4815314;29;20047;-95
2023/07/07 05:17:26;;;;;;;22.48;12.75;;;14.10;99.90;;;;;;4825588;29;20548;-95
2023/07/07 05:20:05;;;;;;;19.77;11.90;;;14.30;99.90;;;;;;4824984;29;20053;-93
2023/07/07 05:22:48;;;;;;;18.88;11.40;;;14.40;99.90;;;;;;4824994;29;20051;-95
2023/07/07 05:25:14;;;;;;;22.17;11.23;;;14.50;99.90;;;;;;4824370;29;20046;-95
2023/07/07 05:27:39;;;;;;;18.30;11.52;;;14.60;99.90;;;;;;4824373;29;20456;-96
2023/07/07 05:30:20;;;;;;;19.35;11.18;;;15.10;99.90;;;;;;4826780;29;20075;-94
2023/07/07 05:32:48;;;;;;;21.45;11.43;;;14.70;99.90;;;;;;4841413;29;20071;-95
2023/07/07 05:35:14;;;;;;;19.38;11.50;;;14.80;99.90;;;;;;4845074;29;20158;-95
2023/07/07 05:37:40;;;;;;;18.88;10.43;;;15.00;99.90;;;;;;5048069;24;20051;-95
2023/07/07 05:40:30;;;;;;;21.58;11.63;;;15.00;99.90;;;;;;4823551;29;20487;-96
2023/07/07 05:42:56;;;;;;;18.27;11.15;;;15.20;99.90;;;;;;4823142;29;20058;-95
2023/07/07 05:45:37;;;;;;;20.45;12.52;;;15.80;99.90;;;;;;4824654;29;20090;-96
2023/07/07 05:48:03;;;;;;;17.05;9.95;;;15.30;99.90;;;;;;4846383;29;20027;-95
2023/07/07 05:50:28;;;;;;;27.85;12.18;;;15.40;99.90;;;;;;4840429;29;20042;-96
2023/07/07 05:53:10;;;;;;;23.67;11.35;;;15.50;99.90;;;;;;4826699;29;20046;-95
2023/07/07 05:55:39;;;;;;;22.42;11.18;;;15.60;99.90;;;;;;4825035;29;20384;-95
2023/07/07 05:58:05;;;;;;;18.95;10.82;;;15.70;99.90;;;;;;4828299;29;20052;-95
2023/07/07 06:00:33;;;;;;;17.85;11.10;;;15.80;99.90;;;;;;4842705;29;20046;-95
2023/07/07 06:02:59;;;;;;;19.35;10.95;;;15.90;99.90;;;;;;4839169;29;20049;-96
2023/07/07 06:05:26;;;;;;;18.95;10.98;;;16.00;99.90;;;;;;4824408;29;20050;-95
2023/07/07 06:09:00;;;;;;;18.02;10.77;;;16.10;99.90;;;;;;4837770;29;20082;-95
2023/07/07 06:11:25;;;;;;;17.02;10.07;;;16.10;99.90;;;;;;4842619;29;20050;-93
2023/07/07 06:13:51;;;;;;;19.60;9.98;;;16.60;99.90;;;;;;4840125;29;20105;-87
2023/07/07 06:16:17;;;;;;;16.38;9.68;;;16.40;99.90;;;;;;4840607;29;20129;-88
2023/07/07 06:18:55;;;;;;;25.92;10.15;;;16.40;99.90;;;;;;4839823;29;20050;-86
2023/07/07 06:21:21;;;;;;;22.95;9.85;;;16.40;99.90;;;;;;4841918;29;20530;-93
2023/07/07 06:23:46;;;;;;;19.85;9.70;;;16.70;99.90;;;;;;4840544;29;20061;-88
2023/07/07 06:26:21;;;;;;;15.85;8.77;;;16.70;99.90;;;;;;4841172;29;20052;-88
2023/07/07 06:28:47;;;;;;;16.40;9.10;;;17.50;99.90;;;;;;4841270;29;20056;-92
2023/07/07 06:31:13;;;;;;;14.48;9.10;;;17.30;99.90;;;;;;4830203;29;20051;-89
2023/07/07 06:33:42;;;;;;;19.23;9.10;;;17.40;99.90;;;;;;4820134;29;20058;-87
2023/07/07 06:36:08;;;;;;;14.05;8.20;;;17.30;99.90;;;;;;4822602;29;20058;-87
2023/07/07 06:38:33;;;;;;;13.73;8.13;;;17.40;99.90;;;;;;4823093;29;20149;-89
2023/07/07 06:40:59;;;;;;;15.68;7.60;;;17.50;99.90;;;;;;4821417;29;20542;-88
2023/07/07 06:43:37;;;;;;;12.90;7.28;;;17.80;99.90;;;;;;4822145;29;20046;-88
2023/07/07 06:46:03;;;;;;;13.55;7.70;;;17.70;99.90;;;;;;4812763;29;20099;-86
2023/07/07 06:48:38;;;;;;;13.23;7.30;;;17.90;99.90;;;;;;4822793;29;20046;-87
2023/07/07 06:51:04;;;;;;;12.45;7.38;;;18.00;99.90;;;;;;4841396;29;20065;-87
2023/07/07 06:53:29;;;;;;;12.40;7.07;;;18.10;99.90;;;;;;4840335;29;20581;-87
2023/07/07 06:55:55;;;;;;;19.00;7.47;;;18.30;99.90;;;;;;4839929;29;20073;-87
2023/07/07 06:58:23;;;;;;;16.10;7.10;;;18.50;99.90;;;;;;4839797;29;20118;-87
2023/07/07 07:00:49;;;;;;;13.80;6.60;;;18.60;99.90;;;;;;4840372;29;20056;-88
2023/07/07 07:03:25;;;;;;;10.80;6.45;;;18.80;99.90;;;;;;4842907;29;20050;-87
2023/07/07 07:05:50;;;;;;;12.20;5.75;;;18.90;99.90;;;;;;4842929;29;20070;-87
2023/07/07 07:08:31;;;;;;;11.65;5.68;;;19.10;99.90;;;;;;4825542;29;20496;-87
2023/07/07 07:11:07;;;;;;;;;;;;;;;;;;;;;
2023/07/07 07:13:51;;;;;;;13.00;5.65;;;19.40;99.90;;;;;;4800046;29;20066;-89
2023/07/07 07:16:17;;;;;;;13.93;5.57;;;19.60;99.90;;;;;;4824073;29;20086;-87
2023/07/07 07:18:58;;;;;;;20.02;6.38;;;19.70;99.90;;;;;;4824856;29;20046;-88
2023/07/07 07:21:23;;;;;;;14.40;5.30;;;19.80;99.90;;;;;;4824557;29;20050;-87
2023/07/07 07:24:22;;;;;;;9.43;4.88;;;20.00;99.90;;;;;;4824404;29;20042;-85
2023/07/07 07:27:04;;;;;;;12.50;5.10;;;19.90;99.90;;;;;;4809210;29;20139;-88
2023/07/07 07:29:52;;;;;;;12.60;5.00;;;20.40;99.90;;;;;;4822052;29;20464;-86
2023/07/07 07:32:36;;;;;;;11.65;4.53;;;20.50;99.90;;;;;;4823720;29;20046;-87
2023/07/07 07:35:02;;;;;;;10.90;3.85;;;20.70;99.90;;;;;;4824199;29;20049;-88
2023/07/07 07:37:27;;;;;;;9.25;3.80;;;20.90;99.90;;;;;;4824490;29;20051;-89
2023/07/07 07:39:56;;;;;;;10.40;4.25;;;21.00;99.90;;;;;;4825141;29;20082;-88
2023/07/07 07:42:34;;;;;;;9.85;4.35;;;21.10;99.90;;;;;;4825624;29;20050;-87
2023/07/07 07:45:00;;;;;;;10.52;3.80;;;21.20;99.90;;;;;;4825143;29;20046;-88
2023/07/07 07:47:27;;;;;;;10.80;3.45;;;21.30;99.90;;;;;;4822378;24;20047;-89
2023/07/07 07:49:53;;;;;;;10.35;4.18;;;21.40;99.90;;;;;;4804740;29;20055;-89
2023/07/07 07:53:11;;;;;;;9.15;3.65;;;21.50;99.90;;;;;;4807382;29;20518;-90
2023/07/07 07:55:57;;;;;;;8.68;3.50;;;21.60;99.90;;;;;;4805474;29;20046;-88
2023/07/07 07:58:43;;;;;;;11.60;3.88;;;21.60;99.90;;;;;;4806914;29;20059;-88
2023/07/07 08:01:25;;;;;;;9.43;3.40;;;21.80;99.90;;;;;;4802702;29;20128;-87
2023/07/07 08:04:00;;;;;;;9.88;3.42;;;21.70;99.90;;;;;;4799217;29;20070;-87
2023/07/07 08:06:44;;;;;;;9.85;3.60;;;21.80;99.90;;;;;;4796208;29;20130;-87
2023/07/07 08:09:11;;;;;;;10.10;3.20;;;22.00;99.90;;;;;;4801212;29;20051;-87
2023/07/07 08:11:49;;;;;;;10.07;3.53;;;22.10;99.90;;;;;;4797280;29;20551;-87
2023/07/07 08:14:17;;;;;;;9.52;3.30;;;22.20;99.90;;;;;;4796435;29;20059;-87
2023/07/07 08:17:04;;;;;;;8.68;3.22;;;22.30;99.90;;;;;;4798114;29;20078;-87
2023/07/07 08:19:31;;;;;;;8.32;3.10;;;22.40;99.90;;;;;;4797040;29;20463;-87
2023/07/07 08:22:11;;;;;;;10.60;3.00;;;22.50;99.90;;;;;;4797298;29;20046;-87
2023/07/07 08:24:58;;;;;;;8.27;2.65;;;22.60;99.90;;;;;;4796740;29;20050;-87
2023/07/07 08:27:30;;;;;;;7.65;2.90;;;22.70;99.20;;;;;;4787909;29;20060;-88
2023/07/07 08:29:56;;;;;;;9.02;3.00;;;22.80;99.90;;;;;;4787922;29;20047;-87
2023/07/07 08:32:31;;;;;;;9.05;2.80;;;22.90;99.90;;;;;;4793461;29;20058;-87
2023/07/07 08:34:57;;;;;;;8.48;2.47;;;23.10;99.90;;;;;;4794776;29;20189;-86
2023/07/07 08:37:38;;;;;;;7.60;2.70;;;23.20;99.90;;;;;;4797506;29;20122;-87
2023/07/07 08:40:06;;;;;;;7.90;2.65;;;23.30;96.30;;;;;;4802660;29;20103;-87
2023/07/07 08:42:56;;;;;;;8.65;2.85;;;23.30;99.30;;;;;;4804805;29;20055;-87
2023/07/07 08:45:28;;;;;;;8.38;2.60;;;23.40;97.60;;;;;;4802702;29;20389;-87
2023/07/07 08:48:27;;;;;;;9.52;2.85;;;23.40;97.50;;;;;;4800784;29;20192;-88
2023/07/07 08:51:22;;;;;;;10.15;2.92;;;23.60;97.30;;;;;;4773485;30;20414;-87
2023/07/07 08:54:07;;;;;;;7.85;3.00;;;23.70;97.80;;;;;;4785361;30;20067;-88
2023/07/07 08:56:54;;;;;;;7.97;2.75;;;23.80;97.90;;;;;;4794016;29;20516;-83
2023/07/07 09:00:02;;;;;;;8.05;2.90;;;23.80;97.40;;;;;;4789054;29;20051;-85
2023/07/07 09:03:15;;;;;;;8.25;2.60;;;23.90;95.70;;;;;;4788680;29;20066;-86
2023/07/07 09:06:01;;;;;;;8.00;2.92;;;24.00;95.90;;;;;;4788268;29;20424;-85
2023/07/07 09:08:38;;;;;;;8.35;2.80;;;24.20;96.60;;;;;;4787691;29;20055;-87
2023/07/07 09:11:25;;;;;;;7.13;2.83;;;24.30;96.30;;;;;;4787795;29;20407;-86
2023/07/07 09:13:56;;;;;;;10.07;2.90;;;24.40;95.90;;;;;;4786708;29;20051;-86
2023/07/07 09:16:27;;;;;;;7.70;2.67;;;24.40;95.30;;;;;;4799112;24;20137;-85
2023/07/07 09:19:03;;;;;;;8.25;3.03;;;24.30;94.10;;;;;;4805067;29;20055;-87
2023/07/07 09:21:46;;;;;;;9.93;2.78;;;24.30;95.20;;;;;;4804068;29;20051;-83
2023/07/07 09:24:22;;;;;;;7.47;2.70;;;24.50;94.60;;;;;;4805676;29;20046;-86
2023/07/07 09:26:53;;;;;;;7.88;2.78;;;24.70;94.50;;;;;;4806273;29;20047;-86
2023/07/07 09:29:25;;;;;;;7.72;2.70;;;24.80;93.80;;;;;;4805187;29;20112;-87
2023/07/07 09:31:51;;;;;;;10.20;2.53;;;25.00;94.90;;;;;;4804451;29;20478;-87
2023/07/07 09:34:19;;;;;;;9.02;2.58;;;25.20;94.90;;;;;;4802211;29;20082;-86
2023/07/07 09:37:12;;;;;;;10.02;2.75;;;25.20;94.40;;;;;;4799098;29;20050;-87
2023/07/07 09:40:07;;;;;;;7.90;2.60;;;25.30;93.90;;;;;;4804291;29;20050;-88
2023/07/07 09:42:55;;;;;;;8.00;2.70;;;25.50;91.90;;;;;;4803340;29;20100;-86
2023/07/07 09:45:28;;;;;;;7.82;2.70;;;25.70;93.70;;;;;;4807177;29;20134;-94
2023/07/07 09:48:34;;;;;;;7.95;2.70;;;25.80;93.60;;;;;;4806643;29;20410;-87
2023/07/07 09:51:14;;;;;;;7.90;2.80;;;25.80;90.70;;;;;;4804521;29;20484;-86
2023/07/07 09:54:37;;;;;;;12.55;3.25;;;25.70;91.00;;;;;;4820437;24;20058;-85
2023/07/07 09:57:52;;;;;;;7.60;2.50;;;26.00;91.30;;;;;;4804417;29;20066;-85
2023/07/07 10:00:34;;;;;;;11.00;3.30;;;26.10;92.60;;;;;;4804825;29;20051;-85
2023/07/07 10:06:11;;;;;;;7.55;2.38;;;26.00;93.30;;;;;;4819884;29;20133;-85
2023/07/07 10:08:39;;;;;;;17.70;4.03;;;26.10;93.40;;;;;;4815911;29;20131;-85
2023/07/07 10:11:44;;;;;;;10.65;2.83;;;26.00;93.20;;;;;;4808673;29;20487;-84
2023/07/07 10:14:29;;;;;;;8.73;2.90;;;26.10;91.20;;;;;;4811997;29;20078;-84
2023/07/07 10:20:20;;;;;;;8.55;2.75;;;26.30;91.70;;;;;;4823299;29;20050;-85
2023/07/07 10:22:49;;;;;;;7.95;2.85;;;26.70;92.50;;;;;;4822234;29;20518;-84
2023/07/07 10:25:33;;;;;;;8.52;3.00;;;26.70;91.40;;;;;;4821664;29;20058;-84
2023/07/07 10:28:00;;;;;;;11.18;2.88;;;26.60;91.30;;;;;;4823179;29;20540;-83
2023/07/07 10:30:47;;;;;;;7.88;2.85;;;26.50;90.90;;;;;;4823523;29;20129;-83
2023/07/07 10:33:17;;;;;;;9.15;2.90;;;26.90;88.50;;;;;;4821596;29;20073;-84
2023/07/07 10:36:31;;;;;;;8.65;2.88;;;26.60;90.10;;;;;;4823542;29;20383;-84
2023/07/07 10:39:21;;;;;;;8.25;2.97;;;26.70;89.20;;;;;;4841845;29;20069;-84
2023/07/07 10:41:47;;;;;;;10.95;2.72;;;27.10;87.90;;;;;;4898460;24;20055;-85
2023/07/07 10:47:37;;;;;;;9.55;2.88;;;27.10;89.20;;;;;;4904110;24;20062;-85
2023/07/07 10:54:30;;;;;;;7.72;2.70;;;27.10;89.30;;;;;;4825061;29;20056;-84
2023/07/07 10:57:48;;;;;;;8.45;2.70;;;27.00;85.40;;;;;;4826363;29;20046;-84
2023/07/07 11:00:44;;;;;;;;;;;;;;;;;;;;;
2023/07/07 11:03:58;;;;;;;;;;;27.30;87.70;;;;;;4827350;29;20058;-85
2023/07/07 11:10:33;;;;;;;;;;;;;;;;;;;;;
2023/07/07 11:14:09;;;;;;;9.52;2.72;;;27.70;85.00;;;;;;4779715;29;20068;-84
2023/07/07 11:17:09;;;;;;;11.10;3.10;;;27.70;81.10;;;;;;4826033;29;20380;-83
2023/07/07 11:30:31;;;;;;;7.82;2.70;;;27.90;75.80;;;;;;4824556;29;20072;-86
2023/07/07 11:37:00;;;;;;;10.73;3.07;;;28.10;76.10;;;;;;4825376;29;20050;-85
2023/07/07 11:39:56;;;;;;;7.32;2.80;;;28.40;77.20;;;;;;4824713;29;20303;-89
2023/07/07 11:42:52;;;;;;;9.18;2.90;;;28.70;74.40;;;;;;4824300;29;20093;-88
2023/07/07 11:45:57;;;;;;;7.40;2.50;;;28.90;76.80;;;;;;4824006;29;20127;-89
2023/07/07 11:49:00;;;;;;;8.23;3.13;;;29.10;73.00;;;;;;4824421;29;20046;-85
2023/07/07 11:51:44;;;;;;;9.20;3.05;;;29.00;75.50;;;;;;4824528;29;20046;-84
2023/07/07 11:54:47;;;;;;;6.93;2.50;;;28.90;77.40;;;;;;4825889;29;20086;-84
2023/07/07 11:57:57;;;;;;;9.13;3.08;;;29.20;75.70;;;;;;4814115;24;20066;-83
2023/07/07 12:01:16;;;;;;;8.00;2.70;;;29.00;76.80;;;;;;4803673;29;20158;-84
2023/07/07 12:04:27;;;;;;;8.30;2.88;;;28.80;74.50;;;;;;4771052;29;20066;-84
2023/07/07 12:07:22;;;;;;;8.57;2.70;;;28.90;75.40;;;;;;4787792;30;20051;-84
2023/07/07 12:10:02;;;;;;;8.30;2.88;;;28.60;72.90;;;;;;4789729;29;20055;-86
2023/07/07 12:13:09;;;;;;;8.02;2.92;;;28.80;74.70;;;;;;4788989;29;20105;-91
2023/07/07 12:15:51;;;;;;;6.97;2.58;;;28.80;74.00;;;;;;4789735;29;20484;-89
2023/07/07 12:18:30;;;;;;;7.43;2.78;;;28.80;72.50;;;;;;4789426;29;20051;-89
2023/07/07 12:21:14;;;;;;;9.05;2.97;;;28.80;73.60;;;;;;4789671;29;20047;-90
2023/07/07 12:24:00;;;;;;;7.60;2.67;;;28.90;72.80;;;;;;4790155;29;20164;-90
2023/07/07 12:41:39;;;;;;;8.25;2.75;;;30.00;70.90;;;;;;4754318;30;20070;-92
2023/07/07 15:50:05;;;;;;;8.02;2.80;;;31.10;69.00;;;;;;4824233;29;20399;-84
2023/07/07 19:51:47;;;;;;;8.60;3.35;;;24.20;84.30;;;;;;4809302;29;20063;-81
2023/07/07 19:54:25;;;;;;;9.52;3.50;;;23.90;84.30;;;;;;4809940;29;20481;-81
2023/07/07 20:25:03;;;;;;;10.20;3.65;;;22.50;89.30;;;;;;4735144;30;20414;-81
2023/07/07 20:28:22;;;;;;;8.73;3.85;;;22.20;87.70;;;;;;4700552;30;20091;-81
2023/07/07 20:34:55;;;;;;;;;;;;;;;;;;;;;
2023/07/07 20:37:49;;;;;;;8.10;3.50;;;21.80;90.90;;;;;;4797326;29;20506;-80
2023/07/07 20:40:53;;;;;;;9.77;3.80;;;21.60;90.20;;;;;;4813096;29;20543;-81
2023/07/07 20:52:32;;;;;;;10.15;3.60;;;21.10;91.80;;;;;;4799899;29;20587;-83
2023/07/07 20:57:33;;;;;;;8.95;3.83;;;20.80;92.00;;;;;;4858068;24;20067;-80
2023/07/07 21:11:23;;;;;;;11.43;3.95;;;20.40;93.80;;;;;;4811221;29;20072;-83
2023/07/07 21:20:49;;;;;;;10.02;4.13;;;20.10;94.90;;;;;;4819498;24;20082;-82
2023/07/07 21:27:30;;;;;;;10.98;4.03;;;20.20;96.00;;;;;;4809939;29;20054;-82
2023/07/07 21:30:47;;;;;;;11.45;4.30;;;19.80;96.00;;;;;;4775183;30;20063;-83
2023/07/07 21:33:53;;;;;;;9.98;3.88;;;19.70;95.90;;;;;;4757752;30;20146;-83
2023/07/07 21:39:58;;;;;;;9.80;3.83;;;19.70;95.90;;;;;;4809692;29;20123;-82
2023/07/07 21:47:14;;;;;;;10.43;4.40;;;19.20;97.60;;;;;;4809688;29;20045;-83
2023/07/07 21:50:42;;;;;;;8.95;3.90;;;19.50;97.50;;;;;;4810496;29;20065;-82
2023/07/07 21:53:09;;;;;;;9.85;4.30;;;19.30;98.20;;;;;;4801225;29;20420;-83
2023/07/07 21:55:56;;;;;;;9.63;4.47;;;19.20;97.20;;;;;;4800133;29;20066;-83
2023/07/07 21:58:24;;;;;;;10.02;4.20;;;19.10;98.40;;;;;;4798602;24;20573;-85
2023/07/07 22:01:36;;;;;;;10.43;4.20;;;19.10;97.80;;;;;;4804516;29;20126;-84
2023/07/07 22:04:15;;;;;;;10.30;4.43;;;18.90;98.20;;;;;;4803904;29;20492;-85
2023/07/07 22:06:56;;;;;;;11.18;4.40;;;19.00;98.60;;;;;;4805051;29;20505;-85
2023/07/07 22:15:34;;;;;;;9.23;4.35;;;18.90;99.40;;;;;;4821997;29;20061;-85
2023/07/07 22:18:28;;;;;;;12.07;5.20;;;18.80;99.60;;;;;;4823766;29;20063;-85
2023/07/07 22:21:29;;;;;;;11.57;4.60;;;18.70;99.20;;;;;;4822207;29;20129;-86
2023/07/07 22:24:03;;;;;;;9.27;4.32;;;18.60;99.90;;;;;;4821130;29;20086;-85
2023/07/07 22:26:29;;;;;;;11.63;4.53;;;18.60;99.90;;;;;;4823176;29;20050;-86
2023/07/07 22:29:13;;;;;;;10.05;4.72;;;18.50;99.60;;;;;;4822152;29;20083;-85
2023/07/07 22:31:57;;;;;;;9.75;4.47;;;18.50;99.90;;;;;;4822543;29;20562;-85
2023/07/07 22:34:26;;;;;;;11.63;4.93;;;18.40;99.90;;;;;;4825318;29;20055;-85
2023/07/07 22:36:52;;;;;;;11.10;4.40;;;18.40;99.90;;;;;;4825905;29;20133;-85
2023/07/07 22:39:19;;;;;;;9.35;4.57;;;18.30;99.90;;;;;;4825345;29;20447;-86
2023/07/07 22:41:54;;;;;;;10.32;4.20;;;18.30;99.90;;;;;;4825496;29;20387;-85
2023/07/07 22:44:37;;;;;;;10.70;4.55;;;18.20;99.90;;;;;;4826008;29;20046;-85
2023/07/07 22:47:09;;;;;;;10.05;4.43;;;18.10;99.90;;;;;;4838606;24;20082;-86
2023/07/07 22:50:32;;;;;;;9.52;4.43;;;18.10;99.90;;;;;;4824959;29;20146;-86
2023/07/07 22:53:51;;;;;;;10.48;4.60;;;18.20;99.90;;;;;;4825820;29;20123;-86